Port San Antonio, Texas
Current Conditions -  °F | °C
As of 3:58 PM on Monday 24 Nov 2014 (Local Time) from KSKF Reporting Station
Clear Clear  
Wind Chill: 64°   Ceiling: Unl
Heat Index: 64°   Visibility: 10mi
Dew Point: 28°   Wind: 7mph
Humidity: 25%   Direction: NA
Pressure: 30.02"   Gusts: NA
Location:  29.38°N, 98.58°W
Report Text: KSKF 242158Z AUTO VRB06KT 10SM CLR 18/M02 A3002 RMK AO2 SLP164 T01791025 $
Loading
Personal Weather Stations






























Interactive Weather Map New forecast layout! Learn more

10-Day Weather Forecast

Advertisements
Track Severe Weather on mobile